Time;durP1;ratioP1;P1;durP2;ratioP2;P2;SDS_P1;SDS_P2;PMS_P1;PMS_P2;Temp;Humidity;BMP_temperature;BMP_pressure;BME280_temperature;BME280_humidity;BME280_pressure;Samples;Min_cycle;Max_cycle;Signal;HPM_P1;HPM_P2
2022/03/02 00:00:13;;;;;;;;;;;;;;;;;;1047773;28;830;-48
2022/03/02 00:00:44;;;;;;;;;;;;;;;;;;1047885;28;778;-48
2022/03/02 00:01:16;;;;;;;;;;;;;;;;;;1047686;28;953;-47
2022/03/02 00:01:46;;;;;;;;;;;;;;;;;;1047481;28;941;-48
2022/03/02 00:02:17;;;;;;;;;;;;;;;;;;1047333;28;827;-48
2022/03/02 00:02:48;;;;;;;;;;;;;;;;;;1047079;28;965;-48
2022/03/02 00:03:18;;;;;;;;;;;;;;;;;;1047922;28;886;-49
2022/03/02 00:03:49;;;;;;;;;;;;;;;;;;1047644;28;932;-48
2022/03/02 00:04:19;;;;;;;;;;;;;;;;;;1047838;28;961;-48
2022/03/02 00:04:50;;;;;;;;;;;;;;;;;;1047878;28;936;-48
2022/03/02 00:05:20;;;;;;;;;;;;;;;;;;1047795;28;881;-48
2022/03/02 00:05:50;;;;;;;;;;;;;;;;;;1047856;28;917;-48
2022/03/02 00:06:21;;;;;;;;;;;;;;;;;;1047696;28;957;-48
2022/03/02 00:06:51;;;;;;;;;;;;;;;;;;1047753;28;864;-48
2022/03/02 00:07:21;;;;;;;;;;;;;;;;;;1047883;28;873;-48
2022/03/02 00:07:52;;;;;;;;;;;;;;;;;;1047604;28;843;-47
2022/03/02 00:08:22;;;;;;;;;;;;;;;;;;1047806;28;897;-48
2022/03/02 00:08:52;;;;;;;;;;;;;;;;;;1047728;28;794;-48
2022/03/02 00:09:23;;;;;;;;;;;;;;;;;;1047303;28;1040;-48
2022/03/02 00:09:53;;;;;;;;;;;;;;;;;;1047271;28;890;-48
2022/03/02 00:10:23;;;;;;;;;;;;;;;;;;1047670;28;862;-48
2022/03/02 00:10:54;;;;;;;;;;;;;;;;;;1047741;28;945;-48
2022/03/02 00:11:27;;;;;;;;;;;;;;;;;;1047877;28;834;-48
2022/03/02 00:11:58;;;;;;;;;;;;;;;;;;1047686;28;1910;-48
2022/03/02 00:12:30;;;;;;;;;;;;;;;;;;1047740;28;944;-48
2022/03/02 00:13:00;;;;;;;;;;;;;;;;;;1047814;28;854;-48
2022/03/02 00:13:31;;;;;;;;;;;;;;;;;;1047836;28;956;-48
2022/03/02 00:14:05;;;;;;;;;;;;;;;;;;1047857;28;909;-48
2022/03/02 00:14:36;;;;;;;;;;;;;;;;;;1047504;28;874;-47
2022/03/02 00:15:06;;;;;;;;;;;;;;;;;;1043440;28;770;-47
2022/03/02 00:15:37;;;;;;;;;;;;;;;;;;1043266;28;897;-47
2022/03/02 00:16:08;;;;;;;;;;;;;;;;;;1043322;28;909;-47
2022/03/02 00:16:38;;;;;;;;;;;;;;;;;;1043526;28;1001;-47
2022/03/02 00:17:09;;;;;;;;;;;;;;;;;;1047694;28;878;-48
2022/03/02 00:17:40;;;;;;;;;;;;;;;;;;1047176;28;1187;-48
2022/03/02 00:18:11;;;;;;;;;;;;;;;;;;1047746;28;957;-47
2022/03/02 00:18:41;;;;;;;;;;;;;;;;;;1047709;28;885;-47
2022/03/02 00:19:11;;;;;;;;;;;;;;;;;;1047791;28;779;-47
2022/03/02 00:19:41;;;;;;;;;;;;;;;;;;1047722;28;914;-47
2022/03/02 00:20:12;;;;;;;;;;;;;;;;;;1047797;28;890;-47
2022/03/02 00:20:43;;;;;;;;;;;;;;;;;;1047767;28;881;-47
2022/03/02 00:21:13;;;;;;;;;;;;;;;;;;1047747;28;845;-50
2022/03/02 00:21:43;;;;;;;;;;;;;;;;;;1047812;28;922;-47
2022/03/02 00:22:14;;;;;;;;;;;;;;;;;;1047796;28;1660;-47
2022/03/02 00:22:44;;;;;;;;;;;;;;;;;;1047720;28;873;-47
2022/03/02 00:23:15;;;;;;;;;;;;;;;;;;1047698;28;897;-48
2022/03/02 00:23:45;;;;;;;;;;;;;;;;;;1047667;28;933;-47
2022/03/02 00:24:15;;;;;;;;;;;;;;;;;;1047788;28;778;-47
2022/03/02 00:24:50;;;;;;;;;;;;;;;;;;1047112;28;822;-47
2022/03/02 00:25:21;;;;;;;;;;;;;;;;;;1047869;28;949;-47
2022/03/02 00:25:51;;;;;;;;;;;;;;;;;;1047607;28;1019;-47
2022/03/02 00:26:23;;;;;;;;;;;;;;;;;;1047779;28;965;-46
2022/03/02 00:26:54;;;;;;;;;;;;;;;;;;1047644;28;830;-47
2022/03/02 00:27:24;;;;;;;;;;;;;;;;;;1047951;28;862;-47
2022/03/02 00:27:54;;;;;;;;;;;;;;;;;;1047502;28;937;-47
2022/03/02 00:28:25;;;;;;;;;;;;;;;;;;1043403;28;914;-47
2022/03/02 00:28:55;;;;;;;;;;;;;;;;;;1043048;28;838;-47
2022/03/02 00:29:26;;;;;;;;;;;;;;;;;;1043324;28;842;-47
2022/03/02 00:29:56;;;;;;;;;;;;;;;;;;1039095;28;1496;-47
2022/03/02 00:30:28;;;;;;;;;;;;;;;;;;1043377;28;814;-47
2022/03/02 00:30:58;;;;;;;;;;;;;;;;;;1039051;28;1327;-47
2022/03/02 00:31:29;;;;;;;;;;;;;;;;;;1039300;28;914;-47
2022/03/02 00:32:00;;;;;;;;;;;;;;;;;;1043031;28;1985;-47
2022/03/02 00:32:30;;;;;;;;;;;;;;;;;;1042957;28;925;-47
2022/03/02 00:33:00;;;;;;;;;;;;;;;;;;1047684;28;1161;-47
2022/03/02 00:33:31;;;;;;;;;;;;;;;;;;1047788;28;841;-47
2022/03/02 00:34:01;;;;;;;;;;;;;;;;;;1047712;28;1613;-48
2022/03/02 00:34:31;;;;;;;;;;;;;;;;;;1047707;28;960;-48
2022/03/02 00:35:02;;;;;;;;;;;;;;;;;;1047795;28;881;-48
2022/03/02 00:35:36;;;;;;;;;;;;;;;;;;1047578;28;758;-47
2022/03/02 00:36:06;;;;;;;;;;;;;;;;;;1043231;28;1163;-48
2022/03/02 00:36:36;;;;;;;;;;;;;;;;;;1043181;28;1177;-48
2022/03/02 00:37:07;;;;;;;;;;;;;;;;;;1043258;28;845;-48
2022/03/02 00:37:37;;;;;;;;;;;;;;;;;;1043254;28;850;-48
2022/03/02 00:38:10;;;;;;;;;;;;;;;;;;1047552;28;842;-48
2022/03/02 00:38:42;;;;;;;;;;;;;;;;;;1047732;28;957;-47
2022/03/02 00:39:13;;;;;;;;;;;;;;;;;;1047748;28;898;-47
2022/03/02 00:39:44;;;;;;;;;;;;;;;;;;1047050;28;913;-48
2022/03/02 00:40:14;;;;;;;;;;;;;;;;;;1047805;28;821;-48
2022/03/02 00:40:45;;;;;;;;;;;;;;;;;;1047747;28;877;-47
2022/03/02 00:41:15;;;;;;;;;;;;;;;;;;1047759;28;881;-47
2022/03/02 00:41:46;;;;;;;;;;;;;;;;;;1047822;28;790;-47
2022/03/02 00:42:20;;;;;;;;;;;;;;;;;;1047725;28;921;-47
2022/03/02 00:42:50;;;;;;;;;;;;;;;;;;1047742;28;905;-48
2022/03/02 00:43:20;;;;;;;;;;;;;;;;;;1047702;28;918;-48
2022/03/02 00:43:51;;;;;;;;;;;;;;;;;;1047624;28;1060;-48
2022/03/02 00:44:22;;;;;;;;;;;;;;;;;;1047715;28;1001;-48
2022/03/02 00:44:52;;;;;;;;;;;;;;;;;;1047675;28;1614;-48
2022/03/02 00:45:25;;;;;;;;;;;;;;;;;;1047800;28;889;-48
2022/03/02 00:45:58;;;;;;;;;;;;;;;;;;1047666;28;1007;-48
2022/03/02 00:46:29;;;;;;;;;;;;;;;;;;1047656;28;873;-48
2022/03/02 00:47:00;;;;;;;;;;;;;;;;;;1046696;28;1050;-47
2022/03/02 00:47:30;;;;;;;;;;;;;;;;;;1047535;28;874;-47
2022/03/02 00:48:02;;;;;;;;;;;;;;;;;;1047756;28;909;-48
2022/03/02 00:48:32;;;;;;;;;;;;;;;;;;1047528;28;1342;-47
2022/03/02 00:49:03;;;;;;;;;;;;;;;;;;1047539;28;1144;-48
2022/03/02 00:49:33;;;;;;;;;;;;;;;;;;1047808;28;821;-48
2022/03/02 00:50:05;;;;;;;;;;;;;;;;;;1047575;28;944;-48
2022/03/02 00:50:35;;;;;;;;;;;;;;;;;;1047725;28;857;-48
2022/03/02 00:51:05;;;;;;;;;;;;;;;;;;1047948;28;930;-48
2022/03/02 00:51:36;;;;;;;;;;;;;;;;;;1047664;28;929;-48
2022/03/02 00:52:10;;;;;;;;;;;;;;;;;;1047664;28;1910;-48
2022/03/02 00:52:41;;;;;;;;;;;;;;;;;;1046955;28;1052;-47
2022/03/02 00:53:11;;;;;;;;;;;;;;;;;;1047830;28;959;-47
2022/03/02 00:53:42;;;;;;;;;;;;;;;;;;1047739;28;898;-47
2022/03/02 00:54:12;;;;;;;;;;;;;;;;;;1047403;28;1455;-47
2022/03/02 00:54:42;;;;;;;;;;;;;;;;;;1047361;28;818;-47
2022/03/02 00:55:13;;;;;;;;;;;;;;;;;;1047815;28;869;-46
2022/03/02 00:55:43;;;;;;;;;;;;;;;;;;1047658;28;878;-46
2022/03/02 00:56:14;;;;;;;;;;;;;;;;;;1047791;28;1139;-47
2022/03/02 00:56:44;;;;;;;;;;;;;;;;;;1047471;28;1201;-47
2022/03/02 00:57:14;;;;;;;;;;;;;;;;;;1047781;28;1008;-46
2022/03/02 00:57:45;;;;;;;;;;;;;;;;;;1047648;28;1023;-47
2022/03/02 00:58:15;;;;;;;;;;;;;;;;;;1047678;28;993;-46
2022/03/02 00:58:46;;;;;;;;;;;;;;;;;;1047583;28;917;-47
2022/03/02 00:59:16;;;;;;;;;;;;;;;;;;1047707;28;901;-47
2022/03/02 00:59:47;;;;;;;;;;;;;;;;;;1047583;28;1361;-48
2022/03/02 01:00:18;;;;;;;;;;;;;;;;;;1047937;28;870;-47
2022/03/02 01:00:48;;;;;;;;;;;;;;;;;;1047452;28;1008;-47
2022/03/02 01:01:19;;;;;;;;;;;;;;;;;;1047844;28;1003;-47
2022/03/02 01:01:49;;;;;;;;;;;;;;;;;;1046942;28;806;-47
2022/03/02 01:02:19;;;;;;;;;;;;;;;;;;1047819;28;779;-47
2022/03/02 01:02:50;;;;;;;;;;;;;;;;;;1047574;28;882;-47
2022/03/02 01:03:20;;;;;;;;;;;;;;;;;;1047802;28;937;-47
2022/03/02 01:03:50;;;;;;;;;;;;;;;;;;1047624;28;1361;-47
2022/03/02 01:04:21;;;;;;;;;;;;;;;;;;1047923;28;834;-47
2022/03/02 01:04:51;;;;;;;;;;;;;;;;;;1047529;28;882;-47
2022/03/02 01:05:21;;;;;;;;;;;;;;;;;;1047902;28;837;-47
2022/03/02 01:05:52;;;;;;;;;;;;;;;;;;1047475;28;972;-47
2022/03/02 01:06:25;;;;;;;;;;;;;;;;;;1047836;28;1380;-47
2022/03/02 01:06:55;;;;;;;;;;;;;;;;;;1047527;28;881;-47
2022/03/02 01:07:26;;;;;;;;;;;;;;;;;;1047775;28;1103;-47
2022/03/02 01:08:00;;;;;;;;;;;;;;;;;;1043048;28;834;-47
2022/03/02 01:08:31;;;;;;;;;;;;;;;;;;1043189;28;866;-47
2022/03/02 01:09:01;;;;;;;;;;;;;;;;;;1042852;28;803;-47
2022/03/02 01:09:32;;;;;;;;;;;;;;;;;;1043735;28;762;-47
2022/03/02 01:10:04;;;;;;;;;;;;;;;;;;1047523;28;894;-47
2022/03/02 01:10:35;;;;;;;;;;;;;;;;;;1047713;28;672;-47
2022/03/02 01:11:05;;;;;;;;;;;;;;;;;;1047663;28;842;-47
2022/03/02 01:11:35;;;;;;;;;;;;;;;;;;1047073;28;1230;-47
2022/03/02 01:12:06;;;;;;;;;;;;;;;;;;1043131;28;1991;-47
2022/03/02 01:12:37;;;;;;;;;;;;;;;;;;1043200;28;826;-48
2022/03/02 01:13:07;;;;;;;;;;;;;;;;;;1043196;28;898;-48
2022/03/02 01:13:37;;;;;;;;;;;;;;;;;;1043949;28;790;-48
2022/03/02 01:14:08;;;;;;;;;;;;;;;;;;1048306;28;818;-47
2022/03/02 01:14:38;;;;;;;;;;;;;;;;;;1048543;28;941;-48
2022/03/02 01:15:09;;;;;;;;;;;;;;;;;;1048307;28;873;-47
2022/03/02 01:15:43;;;;;;;;;;;;;;;;;;1048577;28;857;-48
2022/03/02 01:16:14;;;;;;;;;;;;;;;;;;1048359;28;944;-47
2022/03/02 01:16:44;;;;;;;;;;;;;;;;;;1047810;28;826;-47
2022/03/02 01:17:14;;;;;;;;;;;;;;;;;;1048415;28;897;-47
2022/03/02 01:17:45;;;;;;;;;;;;;;;;;;1048368;28;819;-47
2022/03/02 01:18:15;;;;;;;;;;;;;;;;;;1048401;28;908;-47
2022/03/02 01:18:46;;;;;;;;;;;;;;;;;;1048510;28;870;-47
2022/03/02 01:19:16;;;;;;;;;;;;;;;;;;1048269;28;905;-47
2022/03/02 01:19:47;;;;;;;;;;;;;;;;;;1048507;28;818;-47
2022/03/02 01:20:17;;;;;;;;;;;;;;;;;;1048488;28;948;-47
2022/03/02 01:20:47;;;;;;;;;;;;;;;;;;1048302;28;925;-47
2022/03/02 01:21:18;;;;;;;;;;;;;;;;;;1048471;28;877;-47
2022/03/02 01:21:48;;;;;;;;;;;;;;;;;;1048349;28;829;-47
2022/03/02 01:22:19;;;;;;;;;;;;;;;;;;1048457;28;886;-47
2022/03/02 01:22:49;;;;;;;;;;;;;;;;;;1048387;28;822;-48
2022/03/02 01:23:19;;;;;;;;;;;;;;;;;;1048356;28;906;-47
2022/03/02 01:23:50;;;;;;;;;;;;;;;;;;1047934;28;857;-48
2022/03/02 01:24:20;;;;;;;;;;;;;;;;;;1048246;28;961;-47
2022/03/02 01:24:50;;;;;;;;;;;;;;;;;;1048332;28;929;-47
2022/03/02 01:25:21;;;;;;;;;;;;;;;;;;1048522;28;885;-47
2022/03/02 01:25:51;;;;;;;;;;;;;;;;;;1048198;28;943;-47
2022/03/02 01:26:21;;;;;;;;;;;;;;;;;;1048544;28;902;-47
2022/03/02 01:26:52;;;;;;;;;;;;;;;;;;1047631;28;1084;-48
2022/03/02 01:27:23;;;;;;;;;;;;;;;;;;1043848;28;1406;-48
2022/03/02 01:27:53;;;;;;;;;;;;;;;;;;1043699;28;934;-48
2022/03/02 01:28:23;;;;;;;;;;;;;;;;;;1044037;28;770;-48
2022/03/02 01:28:54;;;;;;;;;;;;;;;;;;1043942;28;1201;-48
2022/03/02 01:29:24;;;;;;;;;;;;;;;;;;1048566;28;894;-48
2022/03/02 01:29:57;;;;;;;;;;;;;;;;;;1048235;28;936;-48
2022/03/02 01:30:28;;;;;;;;;;;;;;;;;;1048421;28;862;-48
2022/03/02 01:30:58;;;;;;;;;;;;;;;;;;1048432;28;1045;-48
2022/03/02 01:31:29;;;;;;;;;;;;;;;;;;1047725;28;941;-48
2022/03/02 01:31:59;;;;;;;;;;;;;;;;;;1048288;28;1911;-48
2022/03/02 01:32:30;;;;;;;;;;;;;;;;;;1048225;28;1639;-48
2022/03/02 01:33:00;;;;;;;;;;;;;;;;;;1048403;28;870;-48
2022/03/02 01:33:31;;;;;;;;;;;;;;;;;;1048465;28;849;-48
2022/03/02 01:34:01;;;;;;;;;;;;;;;;;;1048378;28;941;-48
2022/03/02 01:34:31;;;;;;;;;;;;;;;;;;1048235;28;794;-48
2022/03/02 01:35:02;;;;;;;;;;;;;;;;;;1048383;28;814;-48
2022/03/02 01:35:32;;;;;;;;;;;;;;;;;;1048306;28;977;-48
2022/03/02 01:36:03;;;;;;;;;;;;;;;;;;1048416;28;921;-48
2022/03/02 01:36:33;;;;;;;;;;;;;;;;;;1048184;28;1288;-48
2022/03/02 01:37:04;;;;;;;;;;;;;;;;;;1048326;28;976;-48
2022/03/02 01:37:34;;;;;;;;;;;;;;;;;;1048216;28;795;-48
2022/03/02 01:38:04;;;;;;;;;;;;;;;;;;1048339;28;858;-48
2022/03/02 01:38:37;;;;;;;;;;;;;;;;;;1048065;28;910;-48
2022/03/02 01:39:07;;;;;;;;;;;;;;;;;;1047761;28;952;-48
2022/03/02 01:39:38;;;;;;;;;;;;;;;;;;1048457;28;854;-48
2022/03/02 01:40:11;;;;;;;;;;;;;;;;;;1048342;28;885;-48
2022/03/02 01:40:42;;;;;;;;;;;;;;;;;;1048243;28;921;-48
2022/03/02 01:41:22;;;;;;;;;;;;;;;;;;1048314;28;815;-48
2022/03/02 01:41:53;;;;;;;;;;;;;;;;;;1048279;28;858;-48
2022/03/02 01:42:29;;;;;;;;;;;;;;;;;;1048328;28;957;-47
2022/03/02 01:43:00;;;;;;;;;;;;;;;;;;1048259;28;953;-48
2022/03/02 01:43:33;;;;;;;;;;;;;;;;;;1048396;28;846;-48
2022/03/02 01:44:03;;;;;;;;;;;;;;;;;;1048458;28;810;-48
2022/03/02 01:44:34;;;;;;;;;;;;;;;;;;1048143;28;1074;-48
2022/03/02 01:45:05;;;;;;;;;;;;;;;;;;1048331;28;1675;-48
2022/03/02 01:45:36;;;;;;;;;;;;;;;;;;1048303;28;1004;-48
2022/03/02 01:46:06;;;;;;;;;;;;;;;;;;1047289;28;976;-48
2022/03/02 01:46:37;;;;;;;;;;;;;;;;;;1047696;28;1061;-48
2022/03/02 01:47:07;;;;;;;;;;;;;;;;;;1048110;28;989;-47
2022/03/02 01:47:38;;;;;;;;;;;;;;;;;;1048190;28;942;-48
2022/03/02 01:48:09;;;;;;;;;;;;;;;;;;1048316;28;831;-48
2022/03/02 01:48:40;;;;;;;;;;;;;;;;;;1047951;28;1275;-48
2022/03/02 01:49:10;;;;;;;;;;;;;;;;;;1048134;28;1108;-48
2022/03/02 01:49:41;;;;;;;;;;;;;;;;;;1048272;28;1681;-48
2022/03/02 01:50:12;;;;;;;;;;;;;;;;;;1048230;28;902;-48
2022/03/02 01:50:45;;;;;;;;;;;;;;;;;;1048343;28;763;-48
2022/03/02 01:51:15;;;;;;;;;;;;;;;;;;1048168;28;842;-48
2022/03/02 01:51:46;;;;;;;;;;;;;;;;;;1048325;28;953;-47
2022/03/02 01:52:16;;;;;;;;;;;;;;;;;;1048207;28;1917;-48
2022/03/02 01:52:47;;;;;;;;;;;;;;;;;;1048252;28;925;-48
2022/03/02 01:53:17;;;;;;;;;;;;;;;;;;1048313;28;791;-48
2022/03/02 01:53:47;;;;;;;;;;;;;;;;;;1047533;28;827;-48
2022/03/02 01:54:18;;;;;;;;;;;;;;;;;;1048427;28;822;-47
2022/03/02 01:54:48;;;;;;;;;;;;;;;;;;1048134;28;810;-46
2022/03/02 01:55:19;;;;;;;;;;;;;;;;;;1048160;28;1045;-47
2022/03/02 01:55:49;;;;;;;;;;;;;;;;;;1048290;28;949;-47
2022/03/02 01:56:19;;;;;;;;;;;;;;;;;;1048300;28;944;-46
2022/03/02 01:56:50;;;;;;;;;;;;;;;;;;1048214;28;941;-46
2022/03/02 01:57:20;;;;;;;;;;;;;;;;;;1048350;28;783;-46
2022/03/02 01:57:51;;;;;;;;;;;;;;;;;;1043445;28;1366;-46
2022/03/02 01:58:21;;;;;;;;;;;;;;;;;;1043791;28;1654;-47
2022/03/02 01:58:51;;;;;;;;;;;;;;;;;;1043701;28;862;-47
2022/03/02 01:59:22;;;;;;;;;;;;;;;;;;1043906;28;810;-47
2022/03/02 01:59:52;;;;;;;;;;;;;;;;;;1048198;28;838;-47
2022/03/02 02:00:23;;;;;;;;;;;;;;;;;;1048279;28;811;-47
2022/03/02 02:00:54;;;;;;;;;;;;;;;;;;1047699;28;922;-46
2022/03/02 02:01:26;;;;;;;;;;;;;;;;;;1047732;28;991;-47
2022/03/02 02:01:56;;;;;;;;;;;;;;;;;;1048153;28;806;-47
2022/03/02 02:02:27;;;;;;;;;;;;;;;;;;1048183;28;860;-49
2022/03/02 02:02:57;;;;;;;;;;;;;;;;;;1048181;28;818;-47
2022/03/02 02:03:27;;;;;;;;;;;;;;;;;;1048227;28;938;-47
2022/03/02 02:03:58;;;;;;;;;;;;;;;;;;1048250;28;885;-47
2022/03/02 02:04:28;;;;;;;;;;;;;;;;;;1048138;28;869;-47
2022/03/02 02:04:59;;;;;;;;;;;;;;;;;;1048217;28;838;-48
2022/03/02 02:05:30;;;;;;;;;;;;;;;;;;1048297;28;846;-47
2022/03/02 02:06:01;;;;;;;;;;;;;;;;;;1047933;28;813;-47
2022/03/02 02:06:31;;;;;;;;;;;;;;;;;;1048362;28;1012;-48
2022/03/02 02:07:02;;;;;;;;;;;;;;;;;;1048072;28;929;-48
2022/03/02 02:07:32;;;;;;;;;;;;;;;;;;1048216;28;822;-47
2022/03/02 02:08:03;;;;;;;;;;;;;;;;;;1048147;28;1368;-48
2022/03/02 02:08:33;;;;;;;;;;;;;;;;;;1047587;28;778;-47
2022/03/02 02:09:05;;;;;;;;;;;;;;;;;;1048148;28;936;-47
2022/03/02 02:09:35;;;;;;;;;;;;;;;;;;1048177;28;945;-47
2022/03/02 02:10:06;;;;;;;;;;;;;;;;;;1048105;28;890;-48
2022/03/02 02:10:37;;;;;;;;;;;;;;;;;;1048316;28;921;-47
2022/03/02 02:11:08;;;;;;;;;;;;;;;;;;1048064;28;846;-48
2022/03/02 02:11:39;;;;;;;;;;;;;;;;;;1048392;28;873;-48
2022/03/02 02:12:09;;;;;;;;;;;;;;;;;;1047987;28;1949;-47
2022/03/02 02:12:39;;;;;;;;;;;;;;;;;;1048198;28;870;-48
2022/03/02 02:13:10;;;;;;;;;;;;;;;;;;1048247;28;858;-47
2022/03/02 02:13:40;;;;;;;;;;;;;;;;;;1048118;28;815;-48
2022/03/02 02:14:11;;;;;;;;;;;;;;;;;;1048237;28;989;-47
2022/03/02 02:14:42;;;;;;;;;;;;;;;;;;1048057;28;996;-47
2022/03/02 02:15:12;;;;;;;;;;;;;;;;;;1048155;28;831;-47
2022/03/02 02:15:43;;;;;;;;;;;;;;;;;;1047493;28;945;-48
2022/03/02 02:16:14;;;;;;;;;;;;;;;;;;1048126;28;960;-46
2022/03/02 02:16:44;;;;;;;;;;;;;;;;;;1048112;28;977;-47
2022/03/02 02:17:15;;;;;;;;;;;;;;;;;;1048299;28;941;-47
2022/03/02 02:17:48;;;;;;;;;;;;;;;;;;1048023;28;945;-47
2022/03/02 02:18:18;;;;;;;;;;;;;;;;;;1048190;28;934;-47
2022/03/02 02:18:50;;;;;;;;;;;;;;;;;;1048003;28;917;-47
2022/03/02 02:19:20;;;;;;;;;;;;;;;;;;1043627;28;834;-47
2022/03/02 02:19:51;;;;;;;;;;;;;;;;;;1043758;28;981;-47
2022/03/02 02:20:23;;;;;;;;;;;;;;;;;;1043502;28;829;-47
2022/03/02 02:20:53;;;;;;;;;;;;;;;;;;1044073;28;775;-47
2022/03/02 02:21:24;;;;;;;;;;;;;;;;;;1047727;28;870;-47
2022/03/02 02:21:54;;;;;;;;;;;;;;;;;;1047917;28;917;-46
2022/03/02 02:22:24;;;;;;;;;;;;;;;;;;1048200;28;819;-47
2022/03/02 02:22:55;;;;;;;;;;;;;;;;;;1048069;28;937;-46
2022/03/02 02:23:25;;;;;;;;;;;;;;;;;;1047514;28;878;-47
2022/03/02 02:23:56;;;;;;;;;;;;;;;;;;1048306;28;885;-47
2022/03/02 02:24:26;;;;;;;;;;;;;;;;;;1048021;28;830;-47
2022/03/02 02:24:57;;;;;;;;;;;;;;;;;;1047674;28;975;-47
2022/03/02 02:25:27;;;;;;;;;;;;;;;;;;1047582;28;877;-47
2022/03/02 02:25:57;;;;;;;;;;;;;;;;;;1048267;28;838;-48
2022/03/02 02:26:28;;;;;;;;;;;;;;;;;;1047636;28;908;-47
2022/03/02 02:26:58;;;;;;;;;;;;;;;;;;1048084;28;904;-46
2022/03/02 02:27:28;;;;;;;;;;;;;;;;;;1048000;28;870;-46
2022/03/02 02:27:59;;;;;;;;;;;;;;;;;;1048173;28;837;-46
2022/03/02 02:28:30;;;;;;;;;;;;;;;;;;1048036;28;782;-47
2022/03/02 02:29:00;;;;;;;;;;;;;;;;;;1048103;28;774;-47
2022/03/02 02:29:32;;;;;;;;;;;;;;;;;;1048004;28;921;-46
2022/03/02 02:30:03;;;;;;;;;;;;;;;;;;1048198;28;833;-46
2022/03/02 02:30:34;;;;;;;;;;;;;;;;;;1046690;28;934;-46
2022/03/02 02:31:04;;;;;;;;;;;;;;;;;;1048038;28;866;-47
2022/03/02 02:31:35;;;;;;;;;;;;;;;;;;1048155;28;866;-47
2022/03/02 02:32:08;;;;;;;;;;;;;;;;;;1047986;28;1973;-47
2022/03/02 02:32:39;;;;;;;;;;;;;;;;;;1047345;28;989;-47
2022/03/02 02:33:11;;;;;;;;;;;;;;;;;;1048199;28;897;-47
2022/03/02 02:33:44;;;;;;;;;;;;;;;;;;1048010;28;826;-47
2022/03/02 02:34:15;;;;;;;;;;;;;;;;;;1048344;28;834;-47
2022/03/02 02:34:45;;;;;;;;;;;;;;;;;;1047865;28;964;-47
2022/03/02 02:35:16;;;;;;;;;;;;;;;;;;1048283;28;826;-47
2022/03/02 02:35:46;;;;;;;;;;;;;;;;;;1047973;28;1393;-47
2022/03/02 02:36:16;;;;;;;;;;;;;;;;;;1048201;28;940;-47
2022/03/02 02:36:47;;;;;;;;;;;;;;;;;;1047962;28;1189;-47
2022/03/02 02:37:17;;;;;;;;;;;;;;;;;;1048128;28;696;-47
2022/03/02 02:37:48;;;;;;;;;;;;;;;;;;1047614;28;889;-47
2022/03/02 02:38:20;;;;;;;;;;;;;;;;;;1047837;28;853;-47
2022/03/02 02:38:51;;;;;;;;;;;;;;;;;;1047969;28;869;-48
2022/03/02 02:39:23;;;;;;;;;;;;;;;;;;1048025;28;826;-47
2022/03/02 02:39:54;;;;;;;;;;;;;;;;;;1048131;28;869;-47
2022/03/02 02:40:26;;;;;;;;;;;;;;;;;;1048042;28;957;-47
2022/03/02 02:40:56;;;;;;;;;;;;;;;;;;1048096;28;894;-47
2022/03/02 02:41:26;;;;;;;;;;;;;;;;;;1048171;28;956;-47
2022/03/02 02:42:06;;;;;;;;;;;;;;;;;;1047996;28;910;-47
2022/03/02 02:42:44;;;;;;;;;;;;;;;;;;1048129;28;857;-47
2022/03/02 02:43:15;;;;;;;;;;;;;;;;;;1048075;28;950;-48
2022/03/02 02:43:46;;;;;;;;;;;;;;;;;;1043362;28;877;-47
2022/03/02 02:44:17;;;;;;;;;;;;;;;;;;1043614;28;961;-48
2022/03/02 02:44:47;;;;;;;;;;;;;;;;;;1043509;28;921;-47
2022/03/02 02:45:20;;;;;;;;;;;;;;;;;;1043203;28;929;-48
2022/03/02 02:45:50;;;;;;;;;;;;;;;;;;1047901;28;941;-47
2022/03/02 02:46:21;;;;;;;;;;;;;;;;;;1048087;28;1000;-48
2022/03/02 02:46:51;;;;;;;;;;;;;;;;;;1048021;28;874;-48
2022/03/02 02:47:22;;;;;;;;;;;;;;;;;;1048038;28;783;-47
2022/03/02 02:47:54;;;;;;;;;;;;;;;;;;1047875;28;949;-48
2022/03/02 02:48:24;;;;;;;;;;;;;;;;;;1047966;28;996;-48
2022/03/02 02:48:55;;;;;;;;;;;;;;;;;;1047833;28;1115;-48
2022/03/02 02:49:25;;;;;;;;;;;;;;;;;;1048052;28;1096;-48
2022/03/02 02:49:58;;;;;;;;;;;;;;;;;;1047988;28;877;-48
2022/03/02 02:50:33;;;;;;;;;;;;;;;;;;1048170;28;1198;-48
2022/03/02 02:51:05;;;;;;;;;;;;;;;;;;1047737;28;909;-48
2022/03/02 02:51:35;;;;;;;;;;;;;;;;;;1048271;28;961;-48
2022/03/02 02:52:06;;;;;;;;;;;;;;;;;;1047747;28;1991;-48
2022/03/02 02:52:37;;;;;;;;;;;;;;;;;;1047964;28;878;-48
2022/03/02 02:53:09;;;;;;;;;;;;;;;;;;1047642;28;981;-48
2022/03/02 02:53:39;;;;;;;;;;;;;;;;;;1047845;28;1305;-48
2022/03/02 02:54:09;;;;;;;;;;;;;;;;;;1048027;28;946;-48
2022/03/02 02:54:40;;;;;;;;;;;;;;;;;;1048030;28;778;-48
2022/03/02 02:55:12;;;;;;;;;;;;;;;;;;1048035;28;905;-48
2022/03/02 02:55:43;;;;;;;;;;;;;;;;;;1047856;28;930;-47
2022/03/02 02:56:13;;;;;;;;;;;;;;;;;;1047878;28;1490;-48
2022/03/02 02:56:44;;;;;;;;;;;;;;;;;;1048022;28;1372;-47
2022/03/02 02:57:14;;;;;;;;;;;;;;;;;;1048139;28;870;-47
2022/03/02 02:57:45;;;;;;;;;;;;;;;;;;1047781;28;826;-48
2022/03/02 02:58:15;;;;;;;;;;;;;;;;;;1048065;28;806;-47
2022/03/02 02:58:46;;;;;;;;;;;;;;;;;;1047857;28;1244;-47
2022/03/02 02:59:16;;;;;;;;;;;;;;;;;;1047984;28;948;-47
2022/03/02 02:59:47;;;;;;;;;;;;;;;;;;1048018;28;802;-48
2022/03/02 03:00:19;;;;;;;;;;;;;;;;;;1047292;28;775;-48
2022/03/02 03:00:50;;;;;;;;;;;;;;;;;;1047937;28;897;-48
2022/03/02 03:01:20;;;;;;;;;;;;;;;;;;1047967;28;1029;-47
2022/03/02 03:01:51;;;;;;;;;;;;;;;;;;1047909;28;922;-47
2022/03/02 03:02:21;;;;;;;;;;;;;;;;;;1047891;28;977;-48
2022/03/02 03:02:52;;;;;;;;;;;;;;;;;;1048099;28;842;-47
2022/03/02 03:03:22;;;;;;;;;;;;;;;;;;1047868;28;916;-47
2022/03/02 03:03:53;;;;;;;;;;;;;;;;;;1048121;28;854;-49
2022/03/02 03:04:23;;;;;;;;;;;;;;;;;;1047915;28;922;-47
2022/03/02 03:04:54;;;;;;;;;;;;;;;;;;1048005;28;1012;-47
2022/03/02 03:05:25;;;;;;;;;;;;;;;;;;1048057;28;862;-47
2022/03/02 03:05:56;;;;;;;;;;;;;;;;;;1048022;28;874;-47
2022/03/02 03:06:29;;;;;;;;;;;;;;;;;;1048154;28;902;-46
2022/03/02 03:07:00;;;;;;;;;;;;;;;;;;1047831;28;1067;-47
2022/03/02 03:07:31;;;;;;;;;;;;;;;;;;1047325;28;961;-47
2022/03/02 03:08:03;;;;;;;;;;;;;;;;;;1048003;28;799;-47
2022/03/02 03:08:33;;;;;;;;;;;;;;;;;;1047756;28;1320;-47
2022/03/02 03:09:04;;;;;;;;;;;;;;;;;;1047876;28;917;-47
2022/03/02 03:09:35;;;;;;;;;;;;;;;;;;1046843;28;1072;-47
2022/03/02 03:10:05;;;;;;;;;;;;;;;;;;1047804;28;1419;-47
2022/03/02 03:10:36;;;;;;;;;;;;;;;;;;1048092;28;802;-47
2022/03/02 03:11:07;;;;;;;;;;;;;;;;;;1047759;28;846;-47
2022/03/02 03:11:38;;;;;;;;;;;;;;;;;;1048031;28;1749;-47
2022/03/02 03:12:09;;;;;;;;;;;;;;;;;;1047831;28;1898;-47
2022/03/02 03:12:39;;;;;;;;;;;;;;;;;;1047767;28;1245;-47
2022/03/02 03:13:10;;;;;;;;;;;;;;;;;;1047959;28;869;-48
2022/03/02 03:13:40;;;;;;;;;;;;;;;;;;1047925;28;775;-48
2022/03/02 03:14:14;;;;;;;;;;;;;;;;;;1047986;28;941;-47
2022/03/02 03:14:45;;;;;;;;;;;;;;;;;;1047827;28;1434;-48
2022/03/02 03:15:16;;;;;;;;;;;;;;;;;;1047280;28;893;-47
2022/03/02 03:15:47;;;;;;;;;;;;;;;;;;1047904;28;822;-48
2022/03/02 03:16:17;;;;;;;;;;;;;;;;;;1048066;28;858;-48
2022/03/02 03:16:50;;;;;;;;;;;;;;;;;;1047912;28;838;-47
2022/03/02 03:17:21;;;;;;;;;;;;;;;;;;1047848;28;1009;-48
2022/03/02 03:17:51;;;;;;;;;;;;;;;;;;1047756;28;854;-48
2022/03/02 03:18:22;;;;;;;;;;;;;;;;;;1048034;28;933;-48
2022/03/02 03:18:53;;;;;;;;;;;;;;;;;;1047813;28;835;-47
2022/03/02 03:19:24;;;;;;;;;;;;;;;;;;1047970;28;910;-47
2022/03/02 03:19:54;;;;;;;;;;;;;;;;;;1043353;28;1205;-48
2022/03/02 03:20:25;;;;;;;;;;;;;;;;;;1043339;28;1241;-47
2022/03/02 03:20:56;;;;;;;;;;;;;;;;;;1043484;28;895;-48
2022/03/02 03:21:33;;;;;;;;;;;;;;;;;;1043680;28;822;-48
2022/03/02 03:22:08;;;;;;;;;;;;;;;;;;1047814;28;965;-47
2022/03/02 03:22:38;;;;;;;;;;;;;;;;;;1047311;28;850;-48
2022/03/02 03:23:09;;;;;;;;;;;;;;;;;;1047853;28;933;-47
2022/03/02 03:23:39;;;;;;;;;;;;;;;;;;1047923;28;961;-48
2022/03/02 03:24:10;;;;;;;;;;;;;;;;;;1047940;28;854;-48
2022/03/02 03:24:40;;;;;;;;;;;;;;;;;;1047912;28;759;-48
2022/03/02 03:25:12;;;;;;;;;;;;;;;;;;1047369;28;1446;-49
2022/03/02 03:25:43;;;;;;;;;;;;;;;;;;1047741;28;1036;-47
2022/03/02 03:26:13;;;;;;;;;;;;;;;;;;1047924;28;1020;-47
2022/03/02 03:26:43;;;;;;;;;;;;;;;;;;1043516;28;855;-47
2022/03/02 03:27:13;;;;;;;;;;;;;;;;;;1043301;28;826;-47
2022/03/02 03:27:45;;;;;;;;;;;;;;;;;;1043272;28;917;-48
2022/03/02 03:28:16;;;;;;;;;;;;;;;;;;1043611;28;996;-47
2022/03/02 03:28:50;;;;;;;;;;;;;;;;;;1047851;28;957;-47
2022/03/02 03:29:20;;;;;;;;;;;;;;;;;;1047752;28;1012;-47
2022/03/02 03:29:52;;;;;;;;;;;;;;;;;;1047228;28;909;-47
2022/03/02 03:30:23;;;;;;;;;;;;;;;;;;1047177;28;1079;-47
2022/03/02 03:30:53;;;;;;;;;;;;;;;;;;1047900;28;842;-47
2022/03/02 03:31:26;;;;;;;;;;;;;;;;;;1047840;28;846;-47
2022/03/02 03:31:59;;;;;;;;;;;;;;;;;;1047754;28;1973;-47
2022/03/02 03:32:30;;;;;;;;;;;;;;;;;;1043477;28;961;-48
2022/03/02 03:33:02;;;;;;;;;;;;;;;;;;1043368;28;914;-47
2022/03/02 03:33:32;;;;;;;;;;;;;;;;;;1043416;28;913;-47
2022/03/02 03:34:03;;;;;;;;;;;;;;;;;;1043985;28;890;-47
2022/03/02 03:34:33;;;;;;;;;;;;;;;;;;1048007;28;969;-47
2022/03/02 03:35:07;;;;;;;;;;;;;;;;;;1047730;28;862;-47
2022/03/02 03:35:37;;;;;;;;;;;;;;;;;;1047996;28;1012;-47
2022/03/02 03:36:08;;;;;;;;;;;;;;;;;;1047587;28;878;-47
2022/03/02 03:36:38;;;;;;;;;;;;;;;;;;1047699;28;1383;-47
2022/03/02 03:37:09;;;;;;;;;;;;;;;;;;1047261;28;853;-47
2022/03/02 03:37:40;;;;;;;;;;;;;;;;;;1046947;28;942;-47